Flight Track Log - Related Links

Times and Time Zones

All times are in EDT time to prevent confusion due to time zone crossing. See the WJA482 flight status page for this flight to view local times or setup timezone preferences in your user account.

Time Position Orientation Groundspeed Altitude Reporting Facility
EDT Latitude Longitude Course Direction KTS MPH feet Rate Location/Type
Mon 04:21:27 PM 49.9833 -119.3500 18° North 280 322 3,200  Level Vancouver Center
Mon 04:26:07 PM 50.2500 -119.2167 37° Northeast 350 403 15,600 2,824 Climbing Edmonton Center
Mon 04:27:07 PM 50.3333 -119.1167 32° Northeast 370 426 19,200 3,150 Climbing Edmonton Center
Mon 04:28:07 PM 50.4333 -119.0167 37° Northeast 390 449 21,900 2,750 Climbing Edmonton Center
Mon 04:29:07 PM 50.5333 -118.9000 37° Northeast 410 472 24,700 2,600 Climbing Edmonton Center
Mon 04:30:07 PM 50.6167 -118.8000 36° Northeast 430 495 27,100 2,400 Climbing Edmonton Center
Mon 04:31:07 PM 50.7333 -118.6667 32° Northeast 450 518 29,500 2,200 Climbing Edmonton Center
Mon 04:32:07 PM 50.8333 -118.5667 40° Northeast 460 529 31,500 2,400 Climbing Edmonton Center
Mon 04:33:07 PM 50.9333 -118.4333 46° Northeast 450 518 34,300 2,229 Climbing Edmonton Center
Mon 04:34:27 PM 51.0667 -118.2167 North 450 518 36,700 1,700 Climbing Vancouver Center
Mon 04:35:07 PM 51.1333 -118.2000 32° Northeast 440 506 37,700 1,380 Climbing Edmonton Center
Mon 04:36:07 PM 51.2333 -118.1000 42° Northeast 450 518 39,000 557 Climbing Edmonton Center
Mon 04:37:27 PM 51.3833 -117.8833 23° Northeast 450 518 39,000  Level Vancouver Center
Mon 04:38:07 PM 51.4333 -117.8500 40° Northeast 440 506 39,000  Level Edmonton Center
Mon 04:39:07 PM 51.5333 -117.7167 32° Northeast 440 506 39,000  Level Edmonton Center
Mon 04:40:07 PM 51.6333 -117.6167 41° Northeast 440 506 39,000  Level Edmonton Center
Mon 04:41:07 PM 51.7167 -117.5000 46° Northeast 440 506 39,000  Level Edmonton Center
Mon 04:42:07 PM 51.8167 -117.3333 54° Northeast 440 506 39,000  Level Edmonton Center
Mon 04:43:07 PM 51.8833 -117.1833 51° Northeast 450 518 39,000  Level Edmonton Center
Mon 04:44:07 PM 51.9667 -117.0167 51° Northeast 450 518 39,000  Level Edmonton Center
Mon 04:45:07 PM 52.0500 -116.8500 59° Northeast 450 518 39,000  Level Edmonton Center
Mon 04:46:07 PM 52.1167 -116.6667 44° Northeast 460 529 39,000 -100 Level Edmonton Center
Mon 04:47:07 PM 52.2000 -116.5333 59° Northeast 460 529 38,800 -1,300 Descending Edmonton Center
Mon 04:48:07 PM 52.2667 -116.3500 48° Northeast 450 518 36,400 -2,450 Descending Edmonton Center
Mon 04:49:07 PM 52.3500 -116.2000 51° Northeast 450 518 33,900 -2,400 Descending Edmonton Center
Mon 04:50:07 PM 52.4333 -116.0333 59° Northeast 450 518 31,600 -2,150 Descending Edmonton Center
Mon 04:51:07 PM 52.5000 -115.8500 54° Northeast 440 506 29,600 -1,550 Descending Edmonton Center
Mon 04:52:07 PM 52.5667 -115.7000 54° Northeast 430 495 28,500 -800 Descending Edmonton Center
Mon 04:53:07 PM 52.6333 -115.5500 50° Northeast 430 495 28,000 -1,500 Descending Edmonton Center
Mon 04:54:07 PM 52.7167 -115.3833 56° Northeast 430 495 25,500 -2,750 Descending Edmonton Center
Mon 04:55:07 PM 52.7833 -115.2167 50° Northeast 440 506 22,500 -2,950 Descending Edmonton Center
Mon 04:56:07 PM 52.8667 -115.0500 54° Northeast 440 506 19,600 -2,550 Descending Edmonton Center
Mon 04:57:07 PM 52.9333 -114.9000 72° East 430 495 17,400 -2,300 Descending Edmonton Center
Mon 04:58:07 PM 52.9667 -114.7333 74° East 420 483 15,000 -2,550 Descending Edmonton Center
Mon 04:59:07 PM 53.0000 -114.5333 70° East 400 460 12,300 -2,400 Descending Edmonton Center
Mon 05:00:07 PM 53.0333 -114.3833 72° East 380 437 10,200 -1,350 Descending Edmonton Center
Mon 05:01:07 PM 53.0667 -114.2167 77° East 330 380 9,600 -1,000 Descending Edmonton Center
Mon 05:02:07 PM 53.0833 -114.1000 67° East 300 345 8,200 -1,250 Descending Edmonton Center
Mon 05:03:07 PM 53.1167 -113.9667 74° East 290 334 7,100 -900 Descending Edmonton Center
Mon 05:04:07 PM 53.1333 -113.8667 64° Northeast 250 288 6,400 -700 Descending Edmonton Center
Mon 05:05:07 PM 53.1667 -113.7500 42° Northeast 220 253 5,700 -1,150 Descending Edmonton Center
Mon 05:06:07 PM 53.2000 -113.7000 42° Northeast 200 230 4,100 -1,250 Descending Edmonton Center
Mon 05:07:07 PM 53.2333 -113.6500 11° North 180 207 3,200 -850 Descending Edmonton Center
Mon 05:08:07 PM 53.2833 -113.6333 42° Northeast 140 161 2,400 -450 Descending Edmonton Center
Mon 05:09:07 PM 53.3167 -113.5833 42° Northeast 140 161 2,300 -100 Descending Edmonton Center

Login

Don't have an account? Register now (free) for customized features, flight alerts, and more!